Archival Weather

Norman Y Mineta San Jose Intl

San Jose, California (KSJC)

Report from: Wednesday, February 21, 2024 9:03 AM PST
Current time: Sunday, June 16, 2024 11:10 PM PDT

Current weather – Weather history – Daily summaries
Weather forecast

Present weatherFog
Temperature10.0°C (50.0°F)
Wind chill9.6°C (49.3°F)
Dew point8.3°C (46.9°F)
Winds 3 kts (1.5 m/s, 3.5 mph) Vrb
Winds variableWinds variable
Visibility1320 ft. (402.3 m)
Clouds Few clouds 0 ft. (0 m)
Few clouds 400 ft. (122 m)
Few clouds 700 ft. (213 m)
Altimeter30.17 in.Hg (1022 mB)
Relative humidity89 %
Density altitude-727 ft. (-221 m)
Remarks Automated weather observing station with precipitation discriminator
Visibility north southeast southwest west
Flight conditions Low Instrument Meteorological Conditions
Raw dataKSJC 211703Z VRB03KT 1/4SM R30L/1600V3000FT FG FEW000 FEW004 FEW007 10/08 A3017 RMK AO2 VIS N 3/4 SE 1/8 SW-W 9 T01000083
An error has occurred. This application may no longer respond until reloaded. Reload 🗙